Time;durP1;ratioP1;P1;durP2;ratioP2;P2;SDS_P1;SDS_P2;PMS_P1;PMS_P2;Temp;Humidity;BMP_temperature;BMP_pressure;BME280_temperature;BME280_humidity;BME280_pressure;Samples;Min_cycle;Max_cycle;Signal;HPM_P1;HPM_P2
2022/08/21 00:00:40;;;;;;;0.70;0.50;;;;;;;28.96;40.79;100738.06;4983914;28;20385;-78
2022/08/21 00:03:10;;;;;;;1.27;0.77;;;;;;;29.03;41.41;100735.97;4987566;28;20046;-77
2022/08/21 00:05:42;;;;;;;1.38;0.70;;;;;;;29.10;41.20;100736.59;4983992;28;20435;-82
2022/08/21 00:08:11;;;;;;;1.45;0.80;;;;;;;29.16;40.15;100728.28;4986530;28;20547;-84
2022/08/21 00:10:41;;;;;;;2.13;0.73;;;;;;;29.18;40.18;100731.72;4985397;28;20050;-84
2022/08/21 00:13:10;;;;;;;1.42;0.60;;;;;;;29.20;39.72;100724.53;4988750;28;20137;-80
2022/08/21 00:15:41;;;;;;;2.72;0.70;;;;;;;29.20;39.35;100733.38;4985949;28;20140;-78
2022/08/21 00:18:12;;;;;;;1.13;0.90;;;;;;;29.18;39.76;100727.28;4985210;28;20050;-78
2022/08/21 00:20:50;;;;;;;0.80;0.70;;;;;;;29.17;40.50;100722.03;4984619;28;20082;-82
2022/08/21 00:23:26;;;;;;;2.08;0.57;;;;;;;29.17;39.97;100716.69;4989390;28;20500;-81
2022/08/21 00:26:01;;;;;;;1.40;0.60;;;;;;;29.07;39.10;100721.59;4989093;28;20050;-76
2022/08/21 00:28:30;;;;;;;3.33;0.80;;;;;;;29.03;39.61;100710.19;4991084;28;20042;-77
2022/08/21 00:30:59;;;;;;;2.50;0.70;;;;;;;29.06;40.25;100709.19;4993996;28;20046;-79
2022/08/21 00:33:28;;;;;;;6.25;1.98;;;;;;;29.09;40.07;100714.41;4985822;28;20409;-79
2022/08/21 00:35:58;;;;;;;1.13;0.80;;;;;;;29.10;39.30;100707.28;4985236;28;20092;-80
2022/08/21 00:38:27;;;;;;;1.60;0.90;;;;;;;29.14;39.81;100711.53;4985068;28;20038;-78
2022/08/21 00:40:58;;;;;;;2.60;0.88;;;;;;;29.12;38.77;100705.41;4991027;28;20043;-79
2022/08/21 00:43:29;;;;;;;3.42;0.70;;;;;;;28.96;40.00;100716.75;4988141;28;20060;-78
2022/08/21 00:45:58;;;;;;;3.50;0.75;;;;;;;28.92;40.01;100711.66;4986482;28;20050;-81
2022/08/21 00:48:27;;;;;;;1.60;0.65;;;;;;;28.93;40.74;100708.03;4988537;28;20599;-79
2022/08/21 00:51:01;;;;;;;1.75;0.70;;;;;;;28.95;40.35;100711.50;4988288;28;20100;-78
2022/08/21 00:53:31;;;;;;;4.15;0.80;;;;;;;28.91;39.34;100707.25;4988165;28;20058;-76
2022/08/21 00:56:02;;;;;;;2.30;0.80;;;;;;;28.89;40.76;100707.34;4988865;28;20530;-78
2022/08/21 00:58:32;;;;;;;1.30;0.77;;;;;;;28.90;40.63;100705.53;4989523;28;20058;-80
2022/08/21 01:01:03;;;;;;;1.83;1.00;;;;;;;28.88;39.85;100707.41;4987606;28;20731;-77
2022/08/21 01:03:32;;;;;;;0.95;0.80;;;;;;;28.84;39.96;100706.69;4995941;28;20132;-78
2022/08/21 01:06:03;;;;;;;1.98;0.73;;;;;;;28.81;40.20;100706.81;4996792;28;20077;-77
2022/08/21 01:08:31;;;;;;;1.93;0.70;;;;;;;28.75;40.37;100702.66;4998544;28;20045;-79
2022/08/21 01:11:01;;;;;;;0.80;0.70;;;;;;;28.70;40.29;100707.34;4987242;28;20703;-77
2022/08/21 01:13:33;;;;;;;1.85;0.65;;;;;;;28.68;40.42;100709.22;4994102;28;20046;-74
2022/08/21 01:16:03;;;;;;;;;;;;;;;28.69;40.04;100710.06;4991367;28;20058;-82
2022/08/21 01:18:32;;;;;;;1.77;0.82;;;;;;;28.58;41.37;100713.22;4991464;28;19973;-80
2022/08/21 01:21:21;;;;;;;4.20;0.80;;;;;;;28.44;41.84;100705.84;4999567;28;20665;-81
2022/08/21 01:23:54;;;;;;;1.08;0.80;;;;;;;28.35;41.95;100708.94;4988385;28;21288;-76
2022/08/21 01:26:26;;;;;;;3.13;1.00;;;;;;;28.36;42.39;100702.69;4997581;28;20051;-77
2022/08/21 01:29:00;;;;;;;1.48;0.70;;;;;;;28.34;42.43;100707.22;4992643;28;20054;-77
2022/08/21 01:31:31;;;;;;;1.35;0.80;;;;;;;28.31;42.28;100707.34;4990680;28;20693;-78
2022/08/21 01:34:00;;;;;;;1.60;0.70;;;;;;;28.27;42.10;100708.44;4986869;28;20113;-74
2022/08/21 01:36:30;;;;;;;2.35;0.95;;;;;;;28.17;42.19;100703.50;4991930;28;20054;-74
2022/08/21 01:38:59;;;;;;;3.55;1.15;;;;;;;28.08;41.98;100698.59;4989502;28;20488;-79
2022/08/21 01:41:27;;;;;;;2.05;0.98;;;;;;;28.03;42.20;100700.59;4988352;28;20121;-77
2022/08/21 01:43:56;;;;;;;2.60;0.82;;;;;;;27.99;42.97;100693.66;4989488;28;20057;-76
2022/08/21 01:46:24;;;;;;;4.20;0.95;;;;;;;27.94;43.02;100693.88;4990022;28;20054;-76
2022/08/21 01:48:53;;;;;;;1.48;1.20;;;;;;;27.88;42.45;100695.97;4987809;28;20046;-77
2022/08/21 01:51:21;;;;;;;2.85;0.90;;;;;;;27.85;42.20;100702.25;4988009;28;20430;-76
2022/08/21 01:53:52;;;;;;;5.28;1.30;;;;;;;27.77;42.95;100686.59;4983952;28;20054;-78
2022/08/21 01:56:21;;;;;;;3.03;0.90;;;;;;;27.73;42.92;100695.63;4988728;28;20042;-83
2022/08/21 01:58:50;;;;;;;1.30;0.90;;;;;;;27.66;42.57;100694.19;4982116;28;20206;-78
2022/08/21 02:01:18;;;;;;;1.17;0.93;;;;;;;27.58;42.85;100691.00;4988058;28;20136;-78
2022/08/21 02:03:47;;;;;;;3.53;1.67;;;;;;;27.52;42.92;100697.41;4985830;28;20551;-78
2022/08/21 02:06:17;;;;;;;1.38;0.80;;;;;;;27.49;43.50;100688.72;4988865;28;20489;-79
2022/08/21 02:08:46;;;;;;;3.67;1.75;;;;;;;27.45;45.00;100687.13;4990305;28;20050;-77
2022/08/21 02:11:16;;;;;;;5.38;1.10;;;;;;;27.42;45.56;100695.19;4986464;28;20666;-76
2022/08/21 02:13:45;;;;;;;2.33;0.85;;;;;;;27.38;45.24;100690.97;4991098;28;20729;-77
2022/08/21 02:16:15;;;;;;;1.85;0.75;;;;;;;27.37;45.55;100695.38;4989348;28;20475;-75
2022/08/21 02:18:44;;;;;;;3.05;0.90;;;;;;;27.34;45.42;100695.53;4983744;28;20078;-74
2022/08/21 02:21:12;;;;;;;2.03;0.88;;;;;;;27.28;45.64;100701.97;4988365;28;20432;-75
2022/08/21 02:23:41;;;;;;;1.27;0.90;;;;;;;27.18;45.95;100697.91;4975659;28;20629;-78
2022/08/21 02:26:10;;;;;;;1.40;0.85;;;;;;;27.07;45.33;100682.41;4973506;28;20047;-76
2022/08/21 02:28:41;;;;;;;2.17;1.00;;;;;;;27.08;45.82;100699.22;4978184;28;20042;-75
2022/08/21 02:31:09;;;;;;;2.15;0.90;;;;;;;27.06;46.10;100698.41;4968324;28;20145;-75
2022/08/21 02:33:38;;;;;;;1.50;0.90;;;;;;;26.99;45.60;100695.13;4972998;28;20050;-76
2022/08/21 02:36:08;;;;;;;2.22;0.93;;;;;;;26.88;45.83;100697.34;4970477;28;20255;-77
2022/08/21 02:38:39;;;;;;;1.85;0.93;;;;;;;26.75;46.70;100691.66;4974156;28;20055;-77
2022/08/21 02:41:09;;;;;;;2.75;0.90;;;;;;;26.65;47.52;100695.59;4968466;28;20584;-77
2022/08/21 02:43:37;;;;;;;3.72;1.08;;;;;;;26.54;48.18;100699.50;4964928;28;20130;-78
2022/08/21 02:46:11;;;;;;;3.05;1.05;;;;;;;26.44;48.22;100700.75;4980662;28;20047;-76
2022/08/21 02:48:41;;;;;;;2.50;1.10;;;;;;;26.40;48.24;100708.88;4965603;28;20053;-76
2022/08/21 02:51:11;;;;;;;2.35;1.00;;;;;;;26.37;48.81;100709.00;4977419;28;20069;-76
2022/08/21 02:53:41;;;;;;;2.67;1.00;;;;;;;26.33;48.34;100709.09;4965556;28;21035;-76
2022/08/21 02:56:12;;;;;;;2.10;0.90;;;;;;;26.27;48.27;100717.31;4971179;28;20547;-77
2022/08/21 02:58:44;;;;;;;6.10;1.20;;;;;;;26.18;48.70;100716.75;4966935;28;20047;-76
2022/08/21 03:01:15;;;;;;;4.38;1.10;;;;;;;26.09;48.99;100715.28;4967604;28;20556;-77
2022/08/21 03:03:46;;;;;;;3.07;1.00;;;;;;;26.00;49.19;100716.50;4964433;28;20051;-77
2022/08/21 03:06:17;;;;;;;2.15;1.00;;;;;;;25.91;49.22;100722.97;4968227;28;20505;-77
2022/08/21 03:08:46;;;;;;;3.27;1.10;;;;;;;25.84;49.72;100720.56;4966363;28;20637;-77
2022/08/21 03:11:15;;;;;;;2.42;1.00;;;;;;;25.74;49.80;100721.78;4974133;28;20288;-77
2022/08/21 03:13:44;;;;;;;4.22;1.35;;;;;;;25.68;49.90;100722.88;4970849;28;20058;-75
2022/08/21 03:16:14;;;;;;;1.40;1.00;;;;;;;25.62;49.78;100731.03;4972986;28;20051;-76
2022/08/21 03:18:43;;;;;;;6.25;1.10;;;;;;;25.52;49.78;100722.53;4968650;28;20043;-76
2022/08/21 03:21:12;;;;;;;2.55;1.17;;;;;;;25.46;50.10;100720.91;4964058;28;20129;-77
2022/08/21 03:23:41;;;;;;;1.30;1.08;;;;;;;25.40;50.07;100717.59;4978345;28;20053;-75
2022/08/21 03:26:10;;;;;;;2.38;1.00;;;;;;;25.32;50.06;100719.66;4968570;28;20135;-74
2022/08/21 03:28:39;;;;;;;3.08;0.93;;;;;;;25.25;50.47;100725.13;4979480;28;20141;-77
2022/08/21 03:31:08;;;;;;;1.35;1.08;;;;;;;25.16;50.86;100725.41;4975412;28;20149;-77
2022/08/21 03:33:38;;;;;;;3.08;1.13;;;;;;;25.14;51.62;100736.97;4968921;28;20050;-76
2022/08/21 03:36:09;;;;;;;1.10;0.85;;;;;;;25.08;51.62;100743.28;4979070;28;20050;-76
2022/08/21 03:38:39;;;;;;;1.65;1.10;;;;;;;25.02;51.69;100748.78;4970262;28;20136;-77
2022/08/21 03:41:09;;;;;;;1.65;1.10;;;;;;;24.93;52.26;100749.06;4971023;28;20047;-77
2022/08/21 03:43:38;;;;;;;3.15;0.95;;;;;;;24.87;52.94;100755.41;4971154;28;20660;-76
2022/08/21 03:46:07;;;;;;;3.10;1.10;;;;;;;24.77;53.32;100748.66;4963747;28;20074;-77
2022/08/21 03:48:40;;;;;;;1.48;1.00;;;;;;;24.74;53.45;100760.22;4964855;28;20046;-75
2022/08/21 03:51:09;;;;;;;3.95;1.80;;;;;;;24.66;53.26;100762.19;4963664;28;20497;-77
2022/08/21 03:53:38;;;;;;;5.53;3.58;;;;;;;24.62;53.43;100765.84;4966239;28;20125;-76
2022/08/21 03:56:07;;;;;;;6.82;3.22;;;;;;;24.57;54.05;100762.47;4972529;28;20047;-78
2022/08/21 03:58:36;;;;;;;2.35;1.63;;;;;;;24.51;54.73;100765.28;4970775;28;20047;-79
2022/08/21 04:01:06;;;;;;;3.20;1.77;;;;;;;24.44;55.03;100773.38;4965234;28;20476;-81
2022/08/21 04:03:38;;;;;;;3.30;2.13;;;;;;;24.39;55.22;100772.59;4967129;28;20055;-74
2022/08/21 04:06:07;;;;;;;4.20;1.95;;;;;;;24.31;55.55;100771.09;4967550;28;20050;-75
2022/08/21 04:08:36;;;;;;;5.63;2.60;;;;;;;24.30;55.82;100774.63;4971147;28;20456;-75
2022/08/21 04:11:07;;;;;;;4.10;2.72;;;;;;;24.24;55.91;100776.53;4968924;28;20054;-76
2022/08/21 04:13:35;;;;;;;3.72;1.75;;;;;;;24.18;56.76;100767.91;4965377;28;20061;-75
2022/08/21 04:16:04;;;;;;;2.85;1.40;;;;;;;24.14;57.34;100779.47;4962086;28;20042;-75
2022/08/21 04:18:33;;;;;;;2.30;1.17;;;;;;;24.06;58.31;100770.88;4970088;28;20104;-73
2022/08/21 04:21:04;;;;;;;5.05;1.40;;;;;;;23.98;57.69;100781.63;4964739;28;20452;-74
2022/08/21 04:23:33;;;;;;;2.90;1.40;;;;;;;23.95;57.20;100779.06;4972919;28;20058;-76
2022/08/21 04:26:01;;;;;;;4.78;1.33;;;;;;;23.89;56.83;100779.22;4985229;28;20121;-76
2022/08/21 04:28:30;;;;;;;2.35;1.38;;;;;;;23.83;57.53;100786.41;4985888;28;20041;-77
2022/08/21 04:31:00;;;;;;;2.40;1.23;;;;;;;23.78;57.29;100780.38;4980955;28;20128;-75
2022/08/21 04:33:29;;;;;;;3.42;1.20;;;;;;;23.74;57.22;100791.03;4980342;28;20198;-76
2022/08/21 04:35:57;;;;;;;1.90;1.10;;;;;;;23.71;57.78;100791.09;4984736;28;20050;-75
2022/08/21 04:38:27;;;;;;;3.60;1.35;;;;;;;23.63;58.21;100794.78;4979315;28;20049;-77
2022/08/21 04:40:56;;;;;;;2.30;1.48;;;;;;;23.54;57.92;100795.00;4986699;28;20100;-76
2022/08/21 04:43:25;;;;;;;2.67;1.27;;;;;;;23.47;58.98;100793.41;4986026;28;20132;-77
2022/08/21 04:45:54;;;;;;;3.22;1.30;;;;;;;23.37;59.04;100798.03;4983312;28;20202;-79
2022/08/21 04:48:25;;;;;;;5.25;1.65;;;;;;;23.32;59.18;100802.56;4987720;28;20061;-75
2022/08/21 04:50:58;;;;;;;6.22;1.52;;;;;;;23.26;59.50;100797.41;4988698;28;20161;-77
2022/08/21 04:53:31;;;;;;;3.13;1.20;;;;;;;23.20;60.06;100792.25;4982378;28;20132;-78
2022/08/21 04:56:08;;;;;;;2.75;1.25;;;;;;;23.16;60.55;100798.53;4983868;28;20050;-77
2022/08/21 04:58:38;;;;;;;4.13;1.30;;;;;;;23.11;60.26;100803.91;4980001;28;20229;-83
2022/08/21 05:01:12;;;;;;;3.13;1.60;;;;;;;23.04;61.61;100815.47;4987209;28;20062;-77
2022/08/21 05:03:42;;;;;;;6.70;1.92;;;;;;;22.98;61.26;100812.94;4982952;28;20126;-74
2022/08/21 05:06:14;;;;;;;4.72;1.70;;;;;;;22.93;61.16;100818.31;4981874;28;20539;-75
2022/08/21 05:08:47;;;;;;;3.20;1.25;;;;;;;22.85;60.81;100816.75;4986100;28;20492;-76
2022/08/21 05:11:15;;;;;;;2.05;1.30;;;;;;;22.63;61.50;100811.91;4987251;28;20104;-79
2022/08/21 05:13:44;;;;;;;2.38;1.02;;;;;;;22.42;62.28;100815.78;4982873;28;20113;-79
2022/08/21 05:16:13;;;;;;;3.00;1.20;;;;;;;22.30;62.32;100819.53;4990180;28;20054;-75
2022/08/21 05:18:48;;;;;;;5.13;1.25;;;;;;;22.26;62.95;100823.09;4988823;28;20093;-74
2022/08/21 05:21:16;;;;;;;2.95;1.10;;;;;;;22.21;63.10;100830.22;4989147;28;20444;-75
2022/08/21 05:23:47;;;;;;;2.58;1.40;;;;;;;22.17;63.06;100831.13;5005405;28;20065;-74
2022/08/21 05:26:15;;;;;;;3.70;1.30;;;;;;;22.13;63.32;100829.47;4992514;28;20054;-77
2022/08/21 05:28:44;;;;;;;2.33;1.30;;;;;;;22.05;63.72;100824.31;5000190;28;20050;-76
2022/08/21 05:31:12;;;;;;;4.43;1.40;;;;;;;22.05;63.93;100826.09;4989513;28;20086;-75
2022/08/21 05:33:41;;;;;;;4.13;1.30;;;;;;;22.00;64.19;100827.94;4989400;28;20054;-75
2022/08/21 05:36:09;;;;;;;3.03;1.38;;;;;;;21.93;63.94;100829.81;4989435;28;20058;-75
2022/08/21 05:38:38;;;;;;;3.10;1.40;;;;;;;21.88;63.97;100829.00;4997293;28;20046;-75
2022/08/21 05:41:08;;;;;;;2.63;1.40;;;;;;;21.83;64.32;100833.47;4987117;28;20050;-74
2022/08/21 05:43:37;;;;;;;2.92;1.52;;;;;;;21.77;64.11;100837.06;4990554;28;20061;-74
2022/08/21 05:46:06;;;;;;;5.15;1.30;;;;;;;21.71;64.33;100832.75;4972390;28;20051;-74
2022/08/21 05:48:36;;;;;;;4.13;1.42;;;;;;;21.64;64.91;100831.09;4982827;28;20108;-72
2022/08/21 05:51:10;;;;;;;4.32;1.20;;;;;;;21.60;64.88;100836.44;4988725;28;20133;-73
2022/08/21 05:53:39;;;;;;;3.30;1.50;;;;;;;21.53;65.39;100839.19;4989997;28;20046;-74
2022/08/21 05:56:10;;;;;;;2.60;1.30;;;;;;;21.48;65.32;100834.88;4976372;28;20096;-75
2022/08/21 05:58:38;;;;;;;4.97;1.20;;;;;;;21.39;65.74;100835.81;4988665;28;20067;-74
2022/08/21 06:01:08;;;;;;;1.85;1.38;;;;;;;21.27;67.44;100847.41;4984632;28;20129;-75
2022/08/21 06:03:39;;;;;;;3.25;1.33;;;;;;;21.12;68.58;100842.34;4982801;28;20051;-75
2022/08/21 06:06:08;;;;;;;4.30;1.15;;;;;;;21.02;68.92;100845.97;4988445;28;20713;-76
2022/08/21 06:08:37;;;;;;;3.03;1.50;;;;;;;20.99;69.71;100849.50;4986852;28;20575;-71
2022/08/21 06:11:06;;;;;;;3.53;1.27;;;;;;;20.99;69.37;100852.13;4987921;28;20058;-72
2022/08/21 06:13:37;;;;;;;6.32;1.50;;;;;;;20.96;69.02;100849.56;4987916;28;20057;-72
2022/08/21 06:16:08;;;;;;;3.33;1.38;;;;;;;20.93;69.33;100849.56;4985819;28;20053;-75
2022/08/21 06:18:37;;;;;;;3.38;1.60;;;;;;;20.88;70.05;100854.03;4987534;28;20050;-77
2022/08/21 06:21:07;;;;;;;3.67;1.50;;;;;;;20.80;70.33;100846.22;4988454;28;20046;-77
2022/08/21 06:23:36;;;;;;;4.13;1.35;;;;;;;20.74;70.95;100850.69;4984962;28;20050;-77
2022/08/21 06:26:06;;;;;;;3.10;1.42;;;;;;;20.68;71.05;100849.88;4964402;28;20074;-72
2022/08/21 06:28:38;;;;;;;4.10;1.70;;;;;;;20.65;71.06;100851.66;4966962;28;20086;-72
2022/08/21 06:31:14;;;;;;;3.65;1.60;;;;;;;20.65;71.04;100857.78;4964719;28;20536;-71
2022/08/21 06:33:43;;;;;;;4.40;1.63;;;;;;;20.64;70.90;100861.31;4968647;28;20097;-71
2022/08/21 06:36:11;;;;;;;5.03;1.70;;;;;;;20.61;70.92;100848.16;4963595;28;20097;-73
2022/08/21 06:38:40;;;;;;;4.78;1.50;;;;;;;20.58;71.23;100850.84;4965976;28;20043;-74
2022/08/21 06:41:09;;;;;;;6.43;1.80;;;;;;;20.55;71.14;100850.84;4960667;28;20062;-73
2022/08/21 06:43:39;;;;;;;4.47;1.50;;;;;;;20.52;71.01;100858.75;4972239;28;20109;-73
2022/08/21 06:46:09;;;;;;;4.40;1.40;;;;;;;20.47;70.31;100861.41;4969800;28;20131;-73
2022/08/21 06:48:37;;;;;;;4.50;1.50;;;;;;;20.41;70.42;100872.00;4961849;28;20043;-73
2022/08/21 06:51:06;;;;;;;4.32;1.50;;;;;;;20.33;71.56;100867.69;4966046;28;20678;-74
2022/08/21 06:53:35;;;;;;;4.93;1.60;;;;;;;20.25;71.84;100866.03;4967395;28;20058;-74
2022/08/21 06:56:04;;;;;;;5.22;1.80;;;;;;;20.23;71.54;100875.66;4958056;28;20051;-72
2022/08/21 06:58:32;;;;;;;3.50;1.35;;;;;;;20.19;72.64;100883.59;4961320;28;20047;-73
2022/08/21 07:01:03;;;;;;;1.65;1.42;;;;;;;20.13;72.49;100884.50;4963505;28;20434;-76
2022/08/21 07:03:34;;;;;;;4.50;1.40;;;;;;;20.12;72.76;100882.75;4967400;28;20055;-76
2022/08/21 07:06:03;;;;;;;3.35;1.42;;;;;;;20.09;72.71;100888.91;4964726;28;20058;-74
2022/08/21 07:08:31;;;;;;;1.77;1.20;;;;;;;20.07;73.11;100884.56;4963415;28;20449;-73
2022/08/21 07:11:02;;;;;;;6.28;1.70;;;;;;;20.11;73.44;100890.66;4962689;28;20173;-73
2022/08/21 07:13:31;;;;;;;1.95;1.35;;;;;;;20.12;73.44;100895.91;4965769;28;20043;-76
2022/08/21 07:15:59;;;;;;;7.10;1.50;;;;;;;20.11;73.61;100893.25;4966470;28;20047;-74
2022/08/21 07:18:30;;;;;;;3.45;1.50;;;;;;;20.13;73.53;100902.88;4970567;28;20481;-74
2022/08/21 07:20:58;;;;;;;2.92;1.30;;;;;;;20.12;73.07;100901.16;4973955;28;20420;-73
2022/08/21 07:23:30;;;;;;;2.90;1.63;;;;;;;20.11;73.02;100899.38;4965764;28;20055;-73
2022/08/21 07:26:00;;;;;;;3.33;1.70;;;;;;;20.07;72.82;100895.06;4971815;28;20058;-74
2022/08/21 07:28:28;;;;;;;4.80;1.30;;;;;;;20.03;72.67;100893.34;4966262;28;20051;-73
2022/08/21 07:31:00;;;;;;;1.88;1.30;;;;;;;19.90;74.48;100895.16;4961251;28;20114;-76
2022/08/21 07:33:33;;;;;;;3.20;1.60;;;;;;;19.78;74.16;100893.50;4961873;28;20513;-74
2022/08/21 07:36:02;;;;;;;3.33;1.55;;;;;;;19.71;74.27;100898.81;4959661;28;20101;-73
2022/08/21 07:38:30;;;;;;;4.75;1.50;;;;;;;19.70;74.54;100908.44;4964406;28;20120;-74
2022/08/21 07:41:01;;;;;;;2.75;1.58;;;;;;;19.67;74.35;100906.63;4970726;28;20063;-74
2022/08/21 07:43:30;;;;;;;6.72;1.60;;;;;;;19.65;74.07;100908.44;4966503;28;20057;-74
2022/08/21 07:45:58;;;;;;;3.42;1.15;;;;;;;19.58;75.97;100897.94;4966111;28;20137;-77
2022/08/21 07:48:27;;;;;;;3.80;1.40;;;;;;;19.41;76.87;100898.91;4964954;28;20047;-77
2022/08/21 07:50:57;;;;;;;2.33;1.40;;;;;;;19.27;77.34;100900.72;4954675;28;20051;-75
2022/08/21 07:53:26;;;;;;;1.67;1.25;;;;;;;19.20;77.60;100909.50;4965155;28;20094;-74
2022/08/21 07:55:54;;;;;;;5.10;1.35;;;;;;;19.12;78.66;100914.75;4958841;28;20114;-77
2022/08/21 07:58:23;;;;;;;5.50;1.50;;;;;;;19.07;78.83;100915.66;4959079;28;20049;-73
2022/08/21 08:00:54;;;;;;;2.75;1.27;;;;;;;19.08;78.05;100914.78;4968103;28;20051;-74
2022/08/21 08:03:22;;;;;;;2.38;1.38;;;;;;;19.09;77.68;100916.53;4966064;28;20050;-74
2022/08/21 08:05:51;;;;;;;3.38;1.42;;;;;;;19.11;77.59;100920.03;4968170;28;20421;-75
2022/08/21 08:08:21;;;;;;;1.83;1.10;;;;;;;19.10;77.93;100927.00;4958323;28;20059;-76
2022/08/21 08:10:50;;;;;;;3.45;1.17;;;;;;;19.08;78.41;100920.00;4968098;28;20053;-73
2022/08/21 08:13:19;;;;;;;6.90;1.40;;;;;;;19.04;78.74;100932.28;4966862;28;20050;-74
2022/08/21 08:15:47;;;;;;;3.28;1.20;;;;;;;18.99;78.95;100921.81;4962981;28;20050;-73
2022/08/21 08:18:16;;;;;;;3.75;1.25;;;;;;;18.89;79.67;100916.56;4959417;28;20053;-75
2022/08/21 08:20:44;;;;;;;1.77;1.00;;;;;;;18.77;80.00;100915.72;4957905;28;20051;-76
2022/08/21 08:23:14;;;;;;;4.13;1.20;;;;;;;18.73;80.49;100920.94;4958090;28;20580;-72
2022/08/21 08:25:51;;;;;;;2.58;1.10;;;;;;;18.71;80.28;100926.16;4977864;28;20085;-73
2022/08/21 08:28:21;;;;;;;2.40;1.10;;;;;;;18.70;80.13;100923.56;4980733;28;20050;-73
2022/08/21 08:30:52;;;;;;;3.58;1.15;;;;;;;18.63;80.45;100926.19;4986282;28;20057;-74
2022/08/21 08:33:22;;;;;;;1.90;1.17;;;;;;;18.63;80.08;100922.72;4987977;28;20704;-73
2022/08/21 08:35:52;;;;;;;2.72;1.15;;;;;;;18.64;80.49;100916.56;4974954;28;20496;-72
2022/08/21 08:38:22;;;;;;;2.92;1.30;;;;;;;18.65;79.73;100920.09;4979837;28;20057;-73
2022/08/21 08:41:01;;;;;;;1.98;1.00;;;;;;;18.61;79.93;100914.84;4984545;28;20191;-73
2022/08/21 08:43:31;;;;;;;1.92;1.02;;;;;;;18.60;78.99;100918.34;4983283;28;20078;-73
2022/08/21 08:46:03;;;;;;;2.97;0.90;;;;;;;18.59;79.74;100916.59;4984240;28;20086;-74
2022/08/21 08:48:44;;;;;;;1.40;0.88;;;;;;;18.57;79.29;100918.31;4984596;28;20129;-73
2022/08/21 08:51:21;;;;;;;2.22;1.00;;;;;;;18.55;79.35;100917.44;4989933;28;20551;-73
2022/08/21 08:53:54;;;;;;;1.15;0.90;;;;;;;18.52;79.82;100927.94;4990191;28;20109;-74
2022/08/21 08:56:27;;;;;;;;;;;;;;;18.49;79.39;100930.56;4991194;28;20050;-74
2022/08/21 08:59:00;;;;;;;3.25;1.10;;;;;;;18.46;79.79;100925.31;4987658;28;19926;-74
2022/08/21 09:01:29;;;;;;;3.95;1.10;;;;;;;18.45;79.92;100928.81;4990727;28;20054;-74
2022/08/21 09:03:59;;;;;;;1.77;0.88;;;;;;;18.42;80.15;100934.94;4988860;28;20050;-74
2022/08/21 09:06:46;;;;;;;2.17;1.05;;;;;;;18.38;80.66;100935.81;4989660;28;20096;-73
2022/08/21 09:09:27;;;;;;;2.92;1.00;;;;;;;18.36;80.26;100936.69;4994525;28;20054;-73
2022/08/21 09:12:04;;;;;;;2.17;1.23;;;;;;;18.33;80.70;100934.94;4991710;28;20125;-73
2022/08/21 09:14:52;;;;;;;1.67;1.48;;;;;;;18.29;80.55;100946.28;4991717;28;20134;-73
2022/08/21 09:17:37;;;;;;;2.40;1.17;;;;;;;18.25;80.54;100935.81;4988429;28;20570;-74
2022/08/21 09:20:19;;;;;;;2.30;1.30;;;;;;;18.23;80.67;100943.66;4993716;28;20092;-73
2022/08/21 09:23:02;;;;;;;3.22;1.17;;;;;;;18.20;81.27;100941.91;4982073;28;20053;-73
2022/08/21 09:25:38;;;;;;;2.83;1.00;;;;;;;18.18;81.02;100934.91;4987883;28;20141;-74
2022/08/21 09:28:14;;;;;;;2.90;1.63;;;;;;;18.15;80.61;100946.28;4989137;28;20570;-74
2022/08/21 09:30:43;;;;;;;2.65;1.10;;;;;;;18.06;80.13;100941.03;4985409;28;20050;-74
2022/08/21 09:33:15;;;;;;;3.03;1.10;;;;;;;18.02;80.61;100944.50;4991862;28;20049;-74
2022/08/21 09:35:53;;;;;;;1.83;0.93;;;;;;;17.93;81.05;100947.97;4987749;28;20046;-73
2022/08/21 09:38:33;;;;;;;3.10;1.13;;;;;;;17.92;81.80;100942.75;4983781;28;20050;-74
2022/08/21 09:41:05;;;;;;;1.85;1.20;;;;;;;17.87;81.96;100945.34;4985322;28;20530;-73
2022/08/21 09:43:35;;;;;;;;;;;;;;;17.86;82.20;100946.19;4990786;28;20046;-73
2022/08/21 09:46:09;;;;;;;1.23;1.00;;;;;;;17.85;82.38;100951.47;4985055;28;20399;-75
2022/08/21 09:48:47;;;;;;;1.90;1.30;;;;;;;17.84;82.77;100944.47;4982334;28;20058;-74
2022/08/21 09:51:20;;;;;;;1.85;1.17;;;;;;;17.80;83.19;100946.19;4979720;28;20524;-73
2022/08/21 09:53:56;;;;;;;2.25;1.23;;;;;;;17.80;81.89;100949.66;4989390;28;20523;-74
2022/08/21 09:59:32;;;;;;;3.67;1.23;;;;;;;17.75;81.69;100961.88;4984913;28;20158;-73
2022/08/21 10:02:02;;;;;;;2.05;0.93;;;;;;;17.73;82.32;100953.13;4989523;28;20050;-74
2022/08/21 10:04:34;;;;;;;2.90;1.10;;;;;;;17.69;82.79;100951.38;4988216;28;20484;-73
2022/08/21 10:07:10;;;;;;;1.20;0.90;;;;;;;17.69;83.48;100951.38;4989111;28;20050;-73
2022/08/21 10:09:39;;;;;;;1.10;0.95;;;;;;;17.67;83.52;100952.22;4987474;28;20057;-74
2022/08/21 10:12:17;;;;;;;2.75;1.30;;;;;;;17.64;83.55;100957.44;4991995;28;20412;-74
2022/08/21 10:14:59;;;;;;;1.70;1.00;;;;;;;17.62;84.87;100960.06;4987088;28;20054;-73
2022/08/21 10:17:39;;;;;;;6.78;1.30;;;;;;;17.61;85.00;100952.19;4989984;28;20061;-72
2022/08/21 10:20:16;;;;;;;3.47;1.25;;;;;;;17.59;84.19;100954.81;4989583;28;20042;-73
2022/08/21 10:22:55;;;;;;;1.45;0.98;;;;;;;17.53;84.06;100950.44;4990377;28;20047;-73
2022/08/21 10:25:32;;;;;;;1.67;1.20;;;;;;;17.53;83.90;100960.03;4992143;28;20050;-73
2022/08/21 10:28:08;;;;;;;2.58;1.20;;;;;;;17.54;84.47;100959.16;4988778;28;20467;-73
2022/08/21 10:30:48;;;;;;;1.45;1.00;;;;;;;17.50;84.82;100955.66;4989102;28;20064;-73
2022/08/21 10:33:27;;;;;;;2.60;1.15;;;;;;;17.48;84.65;100956.53;4996624;28;20054;-73
2022/08/21 10:36:04;;;;;;;1.98;1.23;;;;;;;17.47;84.68;100960.84;4983018;28;20050;-74
2022/08/21 10:38:55;;;;;;;1.30;1.02;;;;;;;17.44;84.02;100952.16;4997634;28;20047;-75
2022/08/21 10:41:33;;;;;;;1.63;1.15;;;;;;;17.35;83.09;100956.44;4984059;28;20574;-74
2022/08/21 10:44:11;;;;;;;1.73;1.20;;;;;;;17.32;84.29;100956.44;4980859;28;20566;-75
2022/08/21 10:46:50;;;;;;;2.97;0.98;;;;;;;17.30;84.55;100965.16;4986329;28;20057;-75
2022/08/21 10:49:27;;;;;;;1.10;1.00;;;;;;;17.29;83.83;100966.00;4983410;28;20050;-74
2022/08/21 10:52:15;;;;;;;3.10;1.10;;;;;;;17.29;84.14;100971.25;4984492;28;20062;-74
2022/08/21 10:54:53;;;;;;;1.98;1.20;;;;;;;17.26;84.76;100977.31;4990259;28;20459;-74
2022/08/21 10:57:40;;;;;;;2.85;1.42;;;;;;;17.24;84.87;100975.56;4992196;28;20046;-74
2022/08/21 11:00:12;;;;;;;3.05;1.27;;;;;;;17.21;84.51;100979.06;4988288;28;20136;-73
2022/08/21 11:02:49;;;;;;;1.77;1.30;;;;;;;17.20;84.46;100977.28;4987550;28;20082;-75
2022/08/21 11:05:27;;;;;;;1.80;1.20;;;;;;;17.11;83.40;100972.91;4984220;28;20507;-74
2022/08/21 11:07:59;;;;;;;4.22;1.10;;;;;;;17.06;84.58;100985.03;4986868;28;20060;-75
2022/08/21 11:10:34;;;;;;;4.38;1.13;;;;;;;16.99;85.73;100977.16;4987100;28;20050;-74
2022/08/21 11:13:16;;;;;;;6.53;1.55;;;;;;;16.90;86.46;100972.75;4986262;28;20061;-75
2022/08/21 11:15:52;;;;;;;1.75;1.35;;;;;;;16.87;86.35;100978.81;4988015;28;20061;-74
2022/08/21 11:18:29;;;;;;;2.65;1.38;;;;;;;16.88;86.00;100975.38;4991672;28;20049;-75
2022/08/21 11:21:06;;;;;;;2.33;1.17;;;;;;;16.87;86.66;100973.59;4991984;28;20070;-74
2022/08/21 11:23:43;;;;;;;1.52;1.10;;;;;;;16.88;86.25;100970.13;4993669;28;20046;-74
2022/08/21 11:26:19;;;;;;;3.40;1.40;;;;;;;16.88;86.42;100985.81;4986533;28;20054;-74
2022/08/21 11:28:53;;;;;;;2.55;1.25;;;;;;;16.87;86.44;100976.22;4989552;28;20058;-74
2022/08/21 11:31:37;;;;;;;2.15;1.10;;;;;;;16.86;85.99;100976.19;4987609;28;20141;-73
2022/08/21 11:34:19;;;;;;;1.65;1.13;;;;;;;16.85;86.02;100972.72;4985374;28;20073;-75
2022/08/21 11:36:55;;;;;;;4.03;1.33;;;;;;;16.84;85.53;100973.59;4984135;28;20536;-74
2022/08/21 11:39:31;;;;;;;2.28;1.10;;;;;;;16.83;85.57;100965.72;4980494;28;20105;-74
2022/08/21 11:42:09;;;;;;;2.08;1.17;;;;;;;16.81;85.28;100963.09;4987280;28;20046;-73
2022/08/21 11:44:48;;;;;;;4.50;1.40;;;;;;;16.78;85.18;100963.03;4988360;28;20050;-75
2022/08/21 11:47:27;;;;;;;1.63;1.10;;;;;;;16.75;85.09;100976.09;4989959;28;20097;-76
2022/08/21 11:50:08;;;;;;;1.98;1.40;;;;;;;16.70;85.60;100981.28;4986655;28;20061;-74